Time;durP1;ratioP1;P1;durP2;ratioP2;P2;SDS_P1;SDS_P2;PMS_P1;PMS_P2;Temp;Humidity;BMP_temperature;BMP_pressure;BME280_temperature;BME280_humidity;BME280_pressure;Samples;Min_cycle;Max_cycle;Signal;HPM_P1;HPM_P2
2023/10/10 00:03:05;;;;;;;;;;;;;;;11.96;100.00;102020.94;5031892;28;19920;-88
2023/10/10 00:08:55;;;;;;;;;;;;;;;11.84;100.00;102017.38;5093831;28;19958;-88
2023/10/10 00:11:34;;;;;;;;;;;;;;;11.78;100.00;102021.78;5075570;28;19926;-88
2023/10/10 00:14:15;;;;;;;;;;;;;;;11.75;100.00;102018.25;5061235;28;20310;-88
2023/10/10 00:16:59;;;;;;;;;;;;;;;11.74;100.00;102027.88;5061020;28;19920;-88
2023/10/10 00:19:32;;;;;;;;;;;;;;;11.71;100.00;102022.63;5076590;28;20003;-88
2023/10/10 00:22:17;;;;;;;;;;;;;;;11.73;100.00;102022.63;5060074;28;19916;-88
2023/10/10 00:24:48;;;;;;;;;;;;;;;11.71;100.00;102024.38;5076536;28;19916;-88
2023/10/10 00:27:16;;;;;;;;;;;;;;;11.68;100.00;102020.00;5075104;28;19919;-88
2023/10/10 00:29:44;;;;;;;;;;;;;;;11.68;100.00;102024.38;5058813;28;20279;-88
2023/10/10 00:32:35;;;;;;;;;;;;;;;11.63;100.00;102023.50;5057462;28;19931;-88
2023/10/10 00:35:07;;;;;;;;;;;;;;;11.60;100.00;102024.34;5092036;28;19955;-88
2023/10/10 00:37:38;;;;;;;;;;;;;;;11.58;100.00;102018.22;5059993;28;19938;-88
2023/10/10 00:40:10;;;;;;;;;;;;;;;11.59;100.00;102014.72;5075802;28;20010;-88
2023/10/10 00:45:36;;;;;;;;;;;;;;;11.67;100.00;102013.00;5093447;28;19916;-88
2023/10/10 00:48:09;;;;;;;;;;;;;;;11.68;100.00;102009.50;5075228;28;19955;-88
2023/10/10 00:51:11;;;;;;;;;;;;;;;11.65;100.00;102013.84;5075740;28;19923;-88
2023/10/10 00:53:47;;;;;;;;;;;;;;;11.60;100.00;102019.09;5072788;28;20049;-88
2023/10/10 00:56:35;;;;;;;;;;;;;;;11.57;100.00;102005.97;5060504;28;19931;-88
2023/10/10 00:59:06;;;;;;;;;;;;;;;11.56;100.00;102014.72;5058015;28;19916;-88
2023/10/10 01:01:40;;;;;;;;;;;;;;;11.56;100.00;102006.84;5075705;28;20004;-88
2023/10/10 01:07:21;;;;;;;;;;;;;;;11.56;100.00;101998.97;4972513;28;19964;-88
2023/10/10 01:10:16;;;;;;;;;;;;;;;11.54;100.00;101993.72;5015080;28;20391;-88
2023/10/10 01:12:49;;;;;;;;;;;;;;;11.52;100.00;101991.94;5008049;28;19944;-88
2023/10/10 01:18:31;;;;;;;;;;;;;;;11.47;100.00;101981.44;5030899;28;19936;-88
2023/10/10 01:24:11;;;;;;;;;;;;;;;11.50;100.00;101978.81;5031132;28;19983;-88
2023/10/10 01:26:38;;;;;;;;;;;;;;;11.51;100.00;101979.72;5030599;28;19921;-88
2023/10/10 01:29:37;;;;;;;;;;;;;;;11.48;100.00;101979.69;5030761;28;19913;-88
2023/10/10 01:32:26;;;;;;;;;;;;;;;;;;;;;
2023/10/10 01:35:23;;;;;;;;;;;;;;;11.43;100.00;101972.69;5051691;28;19916;-88
2023/10/10 01:37:55;;;;;;;;;;;;;;;11.47;100.00;101967.44;5075803;28;19944;-88
2023/10/10 01:40:28;;;;;;;;;;;;;;;11.44;100.00;101963.94;5059137;28;19920;-88
2023/10/10 01:46:40;;;;;;;;;;;;;;;11.31;100.00;101949.03;5076876;28;20249;-88
2023/10/10 01:49:28;;;;;;;;;;;;;;;11.34;100.00;101956.91;5075687;28;19916;-88
2023/10/10 01:52:09;;;;;;;;;;;;;;;11.40;100.00;101950.81;5075097;28;19916;-88
2023/10/10 01:57:57;;;;;;;;;;;;;;;11.43;100.00;101943.81;5076464;28;19919;-88
2023/10/10 02:00:41;;;;;;;;;;;;;;;11.42;100.00;101947.31;5075133;28;20379;-88
2023/10/10 02:03:21;;;;;;;;;;;;;;;11.39;100.00;101936.81;5075236;28;19919;-88
2023/10/10 02:09:00;;;;;;;;;;;;;;;11.25;100.00;101941.16;5076444;28;20378;-86
2023/10/10 02:11:38;;;;;;;;;;;;;;;11.22;100.00;101935.88;5074366;28;19920;-86
2023/10/10 02:14:25;;;;;;;;;;;;;;;11.17;100.00;101938.47;5057234;28;19920;-86
2023/10/10 02:17:19;;;;;;;;;;;;;;;11.25;100.00;101928.03;5057154;28;20404;-86
2023/10/10 02:22:53;;;;;;;;;;;;;;;11.38;100.00;101921.94;5074523;28;19942;-87
2023/10/10 02:31:28;;;;;;;;;;;;;;;11.38;100.00;101921.94;5013677;28;20077;-87
2023/10/10 02:34:12;;;;;;;;;;;;;;;11.39;100.00;101915.81;5013798;28;19913;-87
2023/10/10 02:37:13;;;;;;;;;;;;;;;11.41;100.00;101910.56;5050827;28;19923;-87
2023/10/10 02:51:55;;;;;;;;;;;;;;;11.32;100.00;101910.53;5068993;28;20272;-87
2023/10/10 03:00:27;;;;;;;;;;;;;;;11.19;100.00;101910.53;5075506;28;19916;-87
2023/10/10 03:02:57;;;;;;;;;;;;;;;11.22;100.00;101913.16;5073794;28;20008;-88
2023/10/10 03:08:51;;;;;;;;;;;;;;;11.22;100.00;101914.88;5073135;28;19970;-87
2023/10/10 03:17:45;;;;;;;;;;;;;;;11.13;100.00;101904.38;5075262;28;20441;-87
2023/10/10 03:29:36;;;;;;;;;;;;;;;11.36;100.00;101907.91;5052585;28;19912;-87
2023/10/10 03:35:23;;;;;;;;;;;;;;;11.33;100.00;101913.16;5052732;28;19928;-87
2023/10/10 03:38:42;;;;;;;;;;;;;;;11.27;100.00;101913.16;5035695;28;20319;-87
2023/10/10 05:23:29;;;;;;;;;;;;;;;11.17;100.00;101914.88;5051937;28;20431;-88
2023/10/10 05:28:32;;;;;;;;;;;;;;;11.57;100.00;101854.56;5052989;28;19952;-88
2023/10/10 05:31:02;;;;;;;;;;;;;;;11.55;100.00;101851.09;5075844;28;19916;-88
2023/10/10 05:33:42;;;;;;;;;;;;;;;11.55;100.00;101855.44;5075417;28;19925;-88
2023/10/10 05:36:24;;;;;;;;;;;;;;;11.52;100.00;101839.69;5075329;28;19912;-88
2023/10/10 05:39:12;;;;;;;;;;;;;;;11.60;100.00;101843.22;5060162;28;19916;-89
2023/10/10 05:42:19;;;;;;;;;;;;;;;;;;;;;
2023/10/10 05:54:11;;;;;;;;;;;;;;;11.44;100.00;101832.69;5077981;28;20421;-89
2023/10/10 05:59:40;;;;;;;;;;;;;;;11.44;100.00;101840.56;5077172;28;20283;-88
2023/10/10 06:02:11;;;;;;;;;;;;;;;11.46;100.00;101843.19;5076376;28;20003;-87
2023/10/10 06:04:36;;;;;;;;;;;;;;;11.38;100.00;101840.56;5074998;28;19966;-88
2023/10/10 06:07:10;;;;;;;;;;;;;;;11.47;100.00;101844.09;5075583;28;19920;-88
2023/10/10 06:09:40;;;;;;;;;;;;;;;11.37;100.00;101833.56;5059482;28;19923;-87
2023/10/10 06:12:05;;;;;;;;;;;;;;;11.40;100.00;101833.56;5074528;28;19959;-88
2023/10/10 06:14:31;;;;;;;;;;;;;;;11.36;100.00;101842.31;5075025;28;19952;-88
2023/10/10 06:16:57;;;;;;;;;;;;;;;11.38;100.00;101837.94;5076958;28;19913;-87
2023/10/10 06:19:22;;;;;;;;;;;;;;;11.42;100.00;101837.09;5058010;28;20290;-87
2023/10/10 06:22:02;;;;;;;;;;;;;;;11.44;100.00;101832.69;5074997;28;19913;-87
2023/10/10 06:30:46;;;;;;;;;;;;;;;11.51;100.00;101838.84;5047046;28;19924;-87
2023/10/10 06:33:16;;;;;;;;;;;;;;;11.54;100.00;101823.06;5075396;28;19959;-87
2023/10/10 06:35:52;;;;;;;;;;;;;;;11.59;100.00;101834.47;5077763;28;19916;-87
2023/10/10 06:38:28;;;;;;;;;;;;;;;11.64;100.00;101826.59;5078090;28;19912;-87
2023/10/10 06:41:07;;;;;;;;;;;;;;;;;;;;;
2023/10/10 06:43:39;;;;;;;;;;;;;;;11.79;100.00;101834.47;5079404;28;20251;-87
2023/10/10 06:46:05;;;;;;;;;;;;;;;11.94;100.00;101827.47;5078085;28;19912;-87
2023/10/10 06:49:20;;;;;;;;;;;;;;;12.13;100.00;101823.91;5061512;28;19961;-87
2023/10/10 06:51:49;;;;;;;;;;;;;;;12.27;100.00;101826.50;5032952;28;19924;-87
2023/10/10 06:54:34;;;;;;;;;;;;;;;12.41;100.00;101818.59;5088710;28;19912;-87
2023/10/10 06:59:27;;;;;;;;;;;;;;;12.53;100.00;101825.53;5095723;28;19918;-87
2023/10/10 07:07:56;;;;;;;;;;;;;;;12.98;100.00;101825.31;5095901;28;19982;-87
2023/10/10 07:10:55;;;;;;;;;;;;;;;13.21;100.00;101832.19;5076947;28;20011;-87
2023/10/10 07:13:29;;;;;;;;;;;;;;;13.58;100.00;101831.94;5094372;28;19912;-87
2023/10/10 07:18:58;;;;;;;;;;;;;;;14.30;100.00;101817.16;5095479;28;19919;-87
2023/10/10 07:24:40;;;;;;;;;;;;;;;14.68;99.30;101818.47;5095335;28;19919;-86
2023/10/10 07:27:11;;;;;;;;;;;;;;;14.71;99.84;101823.69;5061295;28;20010;-87
2023/10/10 07:32:16;;;;;;;;;;;;;;;14.80;98.78;101820.97;5095108;28;19971;-87
2023/10/10 07:34:51;;;;;;;;;;;;;;;15.05;97.97;101815.31;5076606;28;19942;-87
2023/10/10 07:37:52;;;;;;;;;;;;;;;15.43;96.18;101813.88;5077012;28;19912;-87
2023/10/10 07:40:37;;;;;;;;;;;;;;;16.03;94.60;101814.59;5073816;28;19937;-87
2023/10/10 07:43:20;;;;;;;;;;;;;;;16.53;93.87;101814.47;5062768;28;19923;-87
2023/10/10 07:58:23;;;;;;;;;;;;;;;16.31;93.52;101808.78;5063627;28;20275;-87
2023/10/10 08:01:21;;;;;;;;;;;;;;;16.17;94.48;101817.84;5076051;28;19916;-87
2023/10/10 08:03:54;;;;;;;;;;;;;;;16.19;95.18;101815.16;5068129;28;19916;-87
2023/10/10 08:10:13;;;;;;;;;;;;;;;16.57;94.39;101816.16;5094541;28;20436;-86
2023/10/10 08:12:43;;;;;;;;;;;;;;;16.42;94.17;101815.59;5094296;28;20267;-87
2023/10/10 08:15:22;;;;;;;;;;;;;;;16.45;94.06;101826.09;5076316;28;19956;-87
2023/10/10 08:21:32;;;;;;;;;;;;;;;16.61;95.03;101823.13;5032321;28;19913;-86
2023/10/10 08:24:08;;;;;;;;;;;;;;;16.77;95.21;101819.25;5031775;28;19913;-87
2023/10/10 08:27:04;;;;;;;;;;;;;;;17.00;94.42;101817.88;5031321;28;19913;-88
2023/10/10 08:30:27;;;;;;;;;;;;;;;;;;;;;
2023/10/10 08:33:10;;;;;;;;;;;;;;;17.21;91.89;101821.81;5031998;28;19917;-87
2023/10/10 08:38:42;;;;;;;;;;;;;;;17.50;90.84;101817.59;5032010;28;19924;-87
2023/10/10 08:44:35;;;;;;;;;;;;;;;17.59;89.54;101820.00;5031927;28;19920;-88
2023/10/10 08:47:15;;;;;;;;;;;;;;;17.61;90.06;101814.66;5041537;28;20386;-87
2023/10/10 08:49:47;;;;;;;;;;;;;;;17.71;90.78;101820.59;5052002;28;19919;-87
2023/10/10 08:52:19;;;;;;;;;;;;;;;17.74;90.67;101823.16;5054549;28;20384;-87
2023/10/10 08:54:47;;;;;;;;;;;;;;;17.82;90.59;101821.19;5054492;28;19920;-87
2023/10/10 08:57:25;;;;;;;;;;;;;;;17.98;91.19;101825.19;5054561;28;20253;-87
2023/10/10 09:03:13;;;;;;;;;;;;;;;18.28;89.13;101825.25;5071032;28;20292;-88
2023/10/10 09:05:50;;;;;;;;;;;;;;;18.17;88.36;101827.31;5073004;28;19916;-88
2023/10/10 09:08:41;;;;;;;;;;;;;;;;;;;;;
2023/10/10 09:11:23;;;;;;;;;;;;;;;18.22;87.84;101822.78;5094571;28;19916;-88
2023/10/10 09:17:42;;;;;;;;;;;;;;;18.20;85.82;101819.28;5093289;28;19920;-88
2023/10/10 09:23:42;;;;;;;;;;;;;;;;;;;;;
2023/10/10 09:29:42;;;;;;;;;;;;;;;18.40;86.60;101810.75;5093612;28;19919;-88
2023/10/10 09:32:37;;;;;;;;;;;;;;;;;;;;;
2023/10/10 09:35:14;;;;;;;;;;;;;;;19.49;83.70;101811.78;5093381;28;19920;-87
2023/10/10 09:40:48;;;;;;;;;;;;;;;20.23;82.27;101816.38;5031054;28;19914;-87
2023/10/10 09:43:35;;;;;;;;;;;;;;;20.38;82.06;101825.56;5030772;28;19913;-87
2023/10/10 09:46:59;;;;;;;;;;;;;;;20.58;80.15;101820.34;5031115;28;20288;-87
2023/10/10 09:58:00;;;;;;;;;;;;;;;20.38;79.34;101828.22;5097387;28;19965;-87
2023/10/10 10:00:45;;;;;;;;;;;;;;;20.46;77.67;101820.81;5064152;28;19917;-87
2023/10/10 10:03:49;;;;;;;;;;;;;;;20.81;79.33;101823.09;5097011;28;19912;-87
2023/10/10 10:09:38;;;;;;;;;;;;;;;21.12;75.46;101814.75;5096702;28;19965;-87
2023/10/10 10:12:30;;;;;;;;;;;;;;;21.04;76.63;101807.03;5034428;28;20316;-87
2023/10/10 10:15:15;;;;;;;;;;;;;;;21.35;76.48;101813.78;5014225;28;19913;-88
2023/10/10 10:24:30;;;;;;;;;;;;;;;21.94;71.22;101819.34;5010868;28;19914;-87
2023/10/10 10:32:49;;;;;;;;;;;;;;;21.21;74.23;101813.50;5014256;28;19918;-88
2023/10/10 10:35:36;;;;;;;;;;;;;;;21.21;71.86;101808.16;4982508;28;20407;-88
2023/10/10 10:38:13;;;;;;;;;;;;;;;21.25;72.42;101809.78;5036892;28;20342;-88
2023/10/10 10:41:07;;;;;;;;;;;;;;;21.54;74.08;101811.25;5014111;28;20016;-87
2023/10/10 11:02:35;;;;;;;;;;;;;;;22.62;70.17;101785.06;4974300;28;20098;-87
2023/10/10 11:05:06;;;;;;;;;;;;;;;22.75;71.45;101788.03;4976500;28;20000;-87
2023/10/10 11:10:45;;;;;;;;;;;;;;;24.99;65.86;101791.56;4999544;28;19921;-87
2023/10/10 11:13:29;;;;;;;;;;;;;;;25.66;66.18;101781.38;5094194;28;19920;-87
2023/10/10 11:28:46;;;;;;;;;;;;;;;;;;;;;
2023/10/10 11:34:43;;;;;;;;;;;;;;;;;;;;;
2023/10/10 11:37:21;;;;;;;;;;;;;;;;;;;;;
2023/10/10 11:40:19;;;;;;;;;;;;;;;22.01;66.07;101740.72;5032303;28;19936;-87
2023/10/10 11:42:59;;;;;;;;;;;;;;;21.94;68.02;101736.63;5032178;28;19921;-87
2023/10/10 11:45:28;;;;;;;;;;;;;;;21.97;67.54;101733.81;5016416;28;19913;-87
2023/10/10 11:48:00;;;;;;;;;;;;;;;21.93;66.37;101733.06;5018166;28;19999;-87
2023/10/10 11:50:56;;;;;;;;;;;;;;;21.89;66.78;101733.28;5057627;28;19943;-87
2023/10/10 11:53:36;;;;;;;;;;;;;;;21.86;65.53;101736.09;5074906;28;20024;-88
2023/10/10 11:56:09;;;;;;;;;;;;;;;21.87;67.73;101728.00;5056808;28;19919;-87
2023/10/10 11:58:37;;;;;;;;;;;;;;;21.93;66.13;101735.72;5056668;28;20371;-87
2023/10/10 12:01:08;;;;;;;;;;;;;;;21.92;67.34;101727.78;5056985;28;20012;-88
2023/10/10 12:06:38;;;;;;;;;;;;;;;21.91;67.01;101723.38;5074360;28;19919;-88
2023/10/10 12:09:10;;;;;;;;;;;;;;;21.97;67.84;101720.47;5042048;28;19912;-87
2023/10/10 12:11:38;;;;;;;;;;;;;;;22.03;65.57;101717.50;5057195;28;19939;-88
2023/10/10 12:14:11;;;;;;;;;;;;;;;21.94;66.81;101713.44;5056233;28;20324;-88
2023/10/10 12:16:36;;;;;;;;;;;;;;;22.01;66.96;101711.38;5055482;28;19916;-87
2023/10/10 12:19:05;;;;;;;;;;;;;;;22.04;66.63;101715.69;5056198;28;19912;-87
2023/10/10 12:21:42;;;;;;;;;;;;;;;22.13;66.68;101710.78;5056766;28;20348;-87
2023/10/10 12:24:36;;;;;;;;;;;;;;;22.23;66.55;101718.38;5074003;28;19912;-88
2023/10/10 12:27:17;;;;;;;;;;;;;;;22.27;64.37;101712.81;5055638;28;20241;-88
2023/10/10 12:29:48;;;;;;;;;;;;;;;22.29;64.23;101704.75;5055554;28;20433;-88
2023/10/10 12:32:18;;;;;;;;;;;;;;;22.27;65.60;101698.63;5056322;28;19931;-88
2023/10/10 12:37:47;;;;;;;;;;;;;;;22.28;65.05;101689.66;5091707;28;20034;-87
2023/10/10 12:40:14;;;;;;;;;;;;;;;22.33;66.89;101689.50;5059874;28;19955;-88
2023/10/10 12:42:58;;;;;;;;;;;;;;;22.38;64.43;101690.13;5076298;28;19969;-88
2023/10/10 12:48:30;;;;;;;;;;;;;;;22.52;64.61;101694.78;5093755;28;20024;-88
2023/10/10 12:54:05;;;;;;;;;;;;;;;23.04;63.61;101686.00;5093862;28;19923;-88
2023/10/10 12:59:36;;;;;;;;;;;;;;;24.50;60.44;101688.03;5093640;28;19978;-88
2023/10/10 13:05:08;;;;;;;;;;;;;;;26.08;56.70;101679.47;5093520;28;20283;-89
2023/10/10 13:11:02;;;;;;;;;;;;;;;25.39;57.12;101684.63;5093312;28;20397;-88
2023/10/10 13:13:45;;;;;;;;;;;;;;;25.02;58.77;101694.84;5061594;28;19923;-89
2023/10/10 13:19:01;;;;;;;;;;;;;;;24.87;59.58;101681.41;5094304;28;19958;-89
2023/10/10 13:21:26;;;;;;;;;;;;;;;24.85;59.58;101680.63;5059244;28;19923;-89
2023/10/10 13:23:52;;;;;;;;;;;;;;;24.84;59.65;101676.22;5059216;28;20264;-88
2023/10/10 13:26:17;;;;;;;;;;;;;;;24.66;58.10;101682.66;5076390;28;19919;-89
2023/10/10 13:28:49;;;;;;;;;;;;;;;24.25;57.41;101680.50;5062616;28;19917;-88
2023/10/10 13:31:17;;;;;;;;;;;;;;;24.02;60.52;101682.63;5079560;28;20362;-88
2023/10/10 13:33:43;;;;;;;;;;;;;;;23.79;59.11;101681.19;5080220;28;19912;-88
2023/10/10 13:36:12;;;;;;;;;;;;;;;23.69;59.84;101678.13;5080052;28;19992;-88
2023/10/10 13:38:46;;;;;;;;;;;;;;;23.61;60.93;101678.56;5097173;28;20292;-88
2023/10/10 13:41:14;;;;;;;;;;;;;;;23.62;61.16;101680.31;5079430;28;19919;-89
2023/10/10 13:43:47;;;;;;;;;;;;;;;23.74;59.13;101678.78;5078750;28;19912;-88
2023/10/10 13:46:13;;;;;;;;;;;;;;;23.90;58.97;101678.84;5063514;28;19916;-88
2023/10/10 13:48:41;;;;;;;;;;;;;;;24.03;60.90;101674.56;5097005;28;19916;-87
2023/10/10 13:51:19;;;;;;;;;;;;;;;24.12;59.85;101666.94;5078861;28;19916;-87
2023/10/10 13:53:55;;;;;;;;;;;;;;;;;;;;;
2023/10/10 13:59:19;;;;;;;;;;;;;;;24.10;60.31;101664.34;5097014;28;19951;-87
2023/10/10 14:01:52;;;;;;;;;;;;;;;24.11;59.37;101666.09;5062535;28;19917;-88
2023/10/10 14:07:33;;;;;;;;;;;;;;;24.06;59.21;101657.44;5096870;28;19919;-87
2023/10/10 14:10:05;;;;;;;;;;;;;;;24.04;59.41;101659.34;5063449;28;19920;-88
2023/10/10 14:12:35;;;;;;;;;;;;;;;23.99;58.17;101658.72;5078328;28;20378;-88
2023/10/10 14:18:06;;;;;;;;;;;;;;;23.76;58.54;101650.13;5096423;28;20386;-87
2023/10/10 14:23:40;;;;;;;;;;;;;;;23.58;56.79;101651.97;5096468;28;19954;-87
2023/10/10 14:35:15;;;;;;;;;;;;;;;23.28;60.45;101627.75;5096623;28;19919;-87
2023/10/10 14:37:41;;;;;;;;;;;;;;;23.25;60.08;101628.75;5060944;28;19924;-87
2023/10/10 14:40:16;;;;;;;;;;;;;;;23.16;60.01;101626.59;5061401;28;19927;-87
2023/10/10 14:42:44;;;;;;;;;;;;;;;22.98;60.01;101625.69;5078164;28;19912;-87
2023/10/10 14:48:33;;;;;;;;;;;;;;;22.65;59.64;101615.78;5051604;28;20276;-87
2023/10/10 14:51:21;;;;;;;;;;;;;;;22.61;59.57;101606.19;5078534;28;20011;-89
2023/10/10 14:53:52;;;;;;;;;;;;;;;22.59;57.77;101608.09;5077765;28;19963;-87
2023/10/10 14:56:28;;;;;;;;;;;;;;;22.58;59.49;101609.03;5077440;28;20202;-87
2023/10/10 14:59:03;;;;;;;;;;;;;;;22.64;59.65;101603.34;5077709;28;19912;-87
2023/10/10 15:01:41;;;;;;;;;;;;;;;22.70;59.18;101608.41;5077844;28;19916;-88
2023/10/10 15:04:12;;;;;;;;;;;;;;;22.71;59.76;101609.25;5061181;28;19916;-87
2023/10/10 15:13:40;;;;;;;;;;;;;;;;;;;;;
2023/10/10 15:19:24;;;;;;;;;;;;;;;22.75;57.04;101597.47;5032912;28;19928;-87
2023/10/10 15:21:59;;;;;;;;;;;;;;;22.72;58.26;101597.66;5055382;28;20271;-87
2023/10/10 15:27:41;;;;;;;;;;;;;;;22.65;59.04;101591.75;5090389;28;19934;-87
2023/10/10 15:30:27;;;;;;;;;;;;;;;22.63;59.26;101588.28;5077252;28;19944;-89
2023/10/10 15:33:05;;;;;;;;;;;;;;;22.58;58.90;101593.00;5076783;28;19916;-88
2023/10/10 15:35:50;;;;;;;;;;;;;;;22.55;59.88;101585.13;5076976;28;19919;-88
2023/10/10 15:38:31;;;;;;;;;;;;;;;22.41;59.66;101584.03;5077130;28;19920;-88
2023/10/10 15:41:25;;;;;;;;;;;;;;;22.35;60.77;101578.97;5077403;28;20352;-88
2023/10/10 15:44:06;;;;;;;;;;;;;;;22.20;58.06;101585.06;5032021;28;19913;-87
2023/10/10 15:46:45;;;;;;;;;;;;;;;22.10;59.56;101579.31;5061832;28;20361;-87
2023/10/10 15:49:31;;;;;;;;;;;;;;;22.00;59.32;101578.88;5094908;28;19916;-88
2023/10/10 15:52:13;;;;;;;;;;;;;;;21.87;59.23;101573.25;5076368;28;19916;-88
2023/10/10 16:04:27;;;;;;;;;;;;;;;21.23;60.15;101567.28;5032255;28;19921;-88
2023/10/10 16:07:11;;;;;;;;;;;;;;;21.14;60.54;101573.03;5058354;28;19920;-88
2023/10/10 16:10:07;;;;;;;;;;;;;;;21.03;60.83;101565.53;5076784;28;19916;-88
2023/10/10 16:12:47;;;;;;;;;;;;;;;20.85;60.30;101561.84;5075544;28;20359;-88
2023/10/10 16:15:49;;;;;;;;;;;;;;;20.69;61.53;101560.78;5060589;28;20364;-88
2023/10/10 16:18:29;;;;;;;;;;;;;;;20.53;61.47;101565.84;5075553;28;20466;-88
2023/10/10 16:21:00;;;;;;;;;;;;;;;20.38;58.76;101562.91;5052215;28;19967;-88
2023/10/10 16:29:45;;;;;;;;;;;;;;;20.04;62.34;101566.06;5046308;28;20008;-88
2023/10/10 16:32:39;;;;;;;;;;;;;;;19.95;63.28;101555.81;5034962;28;19932;-88
2023/10/10 16:57:18;;;;;;;;;;;;;;;18.70;66.26;101546.16;5064153;28;20348;-88
2023/10/10 16:59:52;;;;;;;;;;;;;;;18.63;66.15;101552.59;5072003;28;19981;-88
2023/10/10 17:02:30;;;;;;;;;;;;;;;18.59;65.06;101547.44;5073099;28;20232;-88
2023/10/10 17:05:04;;;;;;;;;;;;;;;18.54;65.44;101547.59;5077659;28;19970;-88
2023/10/10 17:07:50;;;;;;;;;;;;;;;18.47;65.68;101543.41;5062341;28;20368;-89
2023/10/10 17:10:29;;;;;;;;;;;;;;;18.44;65.54;101547.03;5061760;28;20410;-88
2023/10/10 17:12:56;;;;;;;;;;;;;;;18.41;65.70;101544.47;5061175;28;20376;-87
2023/10/10 17:15:43;;;;;;;;;;;;;;;18.31;65.71;101540.41;5077638;28;20367;-88
2023/10/10 17:18:19;;;;;;;;;;;;;;;18.19;66.22;101539.03;5078240;28;20011;-88
2023/10/10 17:20:45;;;;;;;;;;;;;;;18.12;66.16;101529.53;5062654;28;19924;-89
2023/10/10 17:26:34;;;;;;;;;;;;;;;18.08;66.08;101533.19;5079071;28;19942;-88
2023/10/10 17:29:02;;;;;;;;;;;;;;;18.09;65.89;101527.00;5076680;28;20036;-87
2023/10/10 17:31:44;;;;;;;;;;;;;;;18.06;66.20;101530.59;5076799;28;19927;-87
2023/10/10 17:46:52;;;;;;;;;;;;;;;17.89;67.05;101517.84;5020398;28;20476;-88
2023/10/10 17:49:44;;;;;;;;;;;;;;;17.85;67.30;101516.19;5003313;28;19913;-88
2023/10/10 17:52:25;;;;;;;;;;;;;;;17.82;67.57;101516.28;4985606;28;20024;-88
2023/10/10 17:58:03;;;;;;;;;;;;;;;17.87;67.42;101521.44;5015857;28;20351;-87
2023/10/10 18:03:57;;;;;;;;;;;;;;;17.83;67.84;101521.56;4995011;28;19921;-87
2023/10/10 18:09:40;;;;;;;;;;;;;;;;;;;;;
2023/10/10 18:18:53;;;;;;;;;;;;;;;17.67;68.73;101510.56;5034574;28;19920;-87
2023/10/10 18:24:27;;;;;;;;;;;;;;;17.62;69.37;101503.66;5034806;28;19944;-87
2023/10/10 18:26:58;;;;;;;;;;;;;;;17.57;69.64;101494.97;5017948;28;19913;-88
2023/10/10 18:29:48;;;;;;;;;;;;;;;17.57;69.73;101498.50;5017673;28;19920;-87
2023/10/10 18:32:27;;;;;;;;;;;;;;;17.50;70.31;101499.63;5048010;28;20027;-87
2023/10/10 18:35:16;;;;;;;;;;;;;;;17.53;69.92;101495.97;5059571;28;19917;-87
2023/10/10 18:37:59;;;;;;;;;;;;;;;17.70;69.54;101495.47;5074954;28;19913;-87
2023/10/10 18:40:45;;;;;;;;;;;;;;;17.59;69.88;101493.16;5074810;28;19912;-87
2023/10/10 18:43:14;;;;;;;;;;;;;;;17.57;70.05;101487.03;5085737;28;19927;-87
2023/10/10 18:45:53;;;;;;;;;;;;;;;17.49;70.55;101488.13;5080485;28;20022;-87
2023/10/10 18:48:18;;;;;;;;;;;;;;;17.49;70.53;101488.13;5064634;28;19958;-88
2023/10/10 18:50:50;;;;;;;;;;;;;;;17.46;70.88;101487.38;5080671;28;19912;-87
2023/10/10 18:56:31;;;;;;;;;;;;;;;17.50;70.96;101486.38;5100647;28;20342;-88
2023/10/10 18:59:01;;;;;;;;;;;;;;;17.51;70.91;101481.91;5083233;28;19919;-87
2023/10/10 19:01:44;;;;;;;;;;;;;;;17.41;71.39;101484.88;5081640;28;20015;-87
2023/10/10 19:04:10;;;;;;;;;;;;;;;17.37;71.51;101480.56;5063844;28;19920;-88
2023/10/10 19:06:44;;;;;;;;;;;;;;;17.37;71.69;101477.03;5063429;28;19924;-88
2023/10/10 19:09:17;;;;;;;;;;;;;;;17.43;71.76;101474.22;5080990;28;19912;-88
2023/10/10 19:11:46;;;;;;;;;;;;;;;17.42;71.88;101467.19;5081681;28;19965;-88
2023/10/10 19:17:40;;;;;;;;;;;;;;;17.35;72.35;101460.31;5098258;28;20287;-88
2023/10/10 19:23:19;;;;;;;;;;;;;;;17.37;72.31;101458.47;5101501;28;19919;-87
2023/10/10 19:28:52;;;;;;;;;;;;;;;17.53;71.79;101457.13;5102732;28;20276;-88
2023/10/10 19:31:21;;;;;;;;;;;;;;;17.52;71.99;101452.72;5084713;28;19916;-88
2023/10/10 19:33:59;;;;;;;;;;;;;;;17.53;71.91;101451.81;5083429;28;19912;-87
2023/10/10 19:39:29;;;;;;;;;;;;;;;17.52;72.09;101455.38;5100813;28;19919;-88
2023/10/10 19:41:59;;;;;;;;;;;;;;;17.57;72.08;101456.13;5066458;28;19965;-88
2023/10/10 19:44:33;;;;;;;;;;;;;;;17.55;72.40;101459.72;5067326;28;19943;-88
2023/10/10 19:47:08;;;;;;;;;;;;;;;17.53;72.52;101454.47;5067754;28;20402;-88
2023/10/10 19:49:34;;;;;;;;;;;;;;;17.49;72.79;101445.72;5083195;28;19978;-87
2023/10/10 19:52:22;;;;;;;;;;;;;;;17.46;73.00;101452.91;5063221;28;19955;-88
2023/10/10 19:54:47;;;;;;;;;;;;;;;17.54;72.97;101445.63;5080547;28;19918;-88
2023/10/10 19:57:16;;;;;;;;;;;;;;;17.62;72.69;101443.56;5085234;28;19955;-88
2023/10/10 19:59:47;;;;;;;;;;;;;;;17.55;73.13;101451.78;5085138;28;20323;-88
2023/10/10 20:05:19;;;;;;;;;;;;;;;17.52;73.16;101449.22;5101657;28;19919;-87
2023/10/10 20:08:01;;;;;;;;;;;;;;;;;;;;;
2023/10/10 20:10:28;;;;;;;;;;;;;;;17.45;73.95;101451.19;5102779;28;20003;-87
2023/10/10 20:13:05;;;;;;;;;;;;;;;17.42;74.13;101451.28;5086007;28;19916;-88
2023/10/10 20:15:56;;;;;;;;;;;;;;;17.39;74.39;101451.38;5083122;28;20311;-88
2023/10/10 20:18:29;;;;;;;;;;;;;;;17.33;74.73;101451.56;5081616;28;19922;-87
2023/10/10 20:20:57;;;;;;;;;;;;;;;17.27;75.09;101453.47;5065612;28;19928;-87
2023/10/10 20:23:29;;;;;;;;;;;;;;;17.21;75.17;101458.97;5082436;28;19912;-88
2023/10/10 20:25:56;;;;;;;;;;;;;;;17.17;75.54;101451.13;5086522;28;19956;-88
2023/10/10 20:28:36;;;;;;;;;;;;;;;17.12;75.81;101448.63;5081607;28;19912;-87
2023/10/10 20:31:17;;;;;;;;;;;;;;;17.16;75.86;101452.06;5061151;28;19921;-87
2023/10/10 20:34:05;;;;;;;;;;;;;;;;;;;;;
2023/10/10 20:36:49;;;;;;;;;;;;;;;17.07;76.41;101450.56;5095093;28;19912;-87
2023/10/10 20:39:41;;;;;;;;;;;;;;;17.11;76.37;101444.25;5077155;28;19912;-86
2023/10/10 20:42:20;;;;;;;;;;;;;;;17.09;76.70;101449.59;5078294;28;19923;-87
2023/10/10 20:47:55;;;;;;;;;;;;;;;17.00;77.75;101446.38;5075298;28;19928;-87
2023/10/10 20:53:27;;;;;;;;;;;;;;;16.93;77.60;101443.00;5074999;28;20057;-87
2023/10/10 21:04:47;;;;;;;;;;;;;;;16.79;78.62;101446.00;5075709;28;19919;-88
2023/10/10 21:07:15;;;;;;;;;;;;;;;16.78;78.69;101455.75;5056891;28;20015;-87
2023/10/10 21:09:43;;;;;;;;;;;;;;;16.74;78.84;101443.50;5039985;28;20280;-87
2023/10/10 21:12:20;;;;;;;;;;;;;;;16.76;78.89;101440.81;5074592;28;19928;-88
2023/10/10 21:15:08;;;;;;;;;;;;;;;16.79;79.09;101441.59;5042786;28;19923;-88
2023/10/10 21:17:48;;;;;;;;;;;;;;;16.76;79.40;101449.59;5073337;28;19912;-88
2023/10/10 21:20:30;;;;;;;;;;;;;;;16.71;79.67;101448.88;5074538;28;19967;-88
2023/10/10 21:23:10;;;;;;;;;;;;;;;16.70;79.71;101436.56;5076375;28;19943;-88
2023/10/10 21:26:03;;;;;;;;;;;;;;;16.73;79.77;101440.91;5045543;28;19943;-89
2023/10/10 21:28:28;;;;;;;;;;;;;;;16.68;80.50;101443.69;5073055;28;19970;-88
2023/10/10 21:31:00;;;;;;;;;;;;;;;16.87;80.38;101444.03;5048605;28;19916;-88
2023/10/10 21:33:26;;;;;;;;;;;;;;;16.77;80.70;101438.13;5039725;28;19934;-88
2023/10/10 21:35:51;;;;;;;;;;;;;;;16.76;81.44;101436.38;5073061;28;19999;-88
2023/10/10 21:38:20;;;;;;;;;;;;;;;16.73;80.38;101432.97;5071492;28;19963;-87
2023/10/10 21:40:49;;;;;;;;;;;;;;;16.73;80.38;101440.91;5072009;28;19913;-87
2023/10/10 21:43:15;;;;;;;;;;;;;;;16.75;80.58;101436.41;5043804;28;20330;-87
2023/10/10 21:45:40;;;;;;;;;;;;;;;16.67;81.53;101428.69;5055894;28;19920;-88
2023/10/10 21:48:09;;;;;;;;;;;;;;;16.70;81.03;101425.97;5073721;28;19939;-87
2023/10/10 21:50:45;;;;;;;;;;;;;;;16.62;81.84;101428.84;5076344;28;19918;-88